createdAt,value
2023-04-02T00:02:23.888Z,29.00
2023-04-02T00:08:18.694Z,31.50
2023-04-02T00:14:24.368Z,28.80
2023-04-02T00:21:09.668Z,31.80
2023-04-02T00:27:14.088Z,31.20
2023-04-02T00:33:36.060Z,35.40
2023-04-02T00:40:03.627Z,36.50
2023-04-02T00:45:30.589Z,33.50
2023-04-02T00:50:46.914Z,32.90
2023-04-02T00:56:14.947Z,37.70
2023-04-02T01:02:24.083Z,35.10
2023-04-02T01:09:19.900Z,33.90
2023-04-02T01:16:04.556Z,34.40
2023-04-02T01:21:35.237Z,35.20
2023-04-02T01:27:40.119Z,38.50
2023-04-02T01:33:47.544Z,37.10
2023-04-02T01:40:02.010Z,33.10
2023-04-02T01:45:31.338Z,34.00
2023-04-02T01:51:48.729Z,42.60
2023-04-02T01:58:13.580Z,36.80
2023-04-02T02:04:28.816Z,40.00
2023-04-02T02:11:19.203Z,42.60
2023-04-02T02:17:46.299Z,42.60
2023-04-02T02:24:04.767Z,44.30
2023-04-02T02:29:36.294Z,45.60
2023-04-02T02:36:01.438Z,46.00
2023-04-02T02:42:10.245Z,45.70
2023-04-02T02:47:54.777Z,43.60
2023-04-02T02:53:26.394Z,47.80
2023-04-02T02:59:28.656Z,44.90
2023-04-02T03:09:52.698Z,49.30
2023-04-02T03:15:58.440Z,51.70
2023-04-02T03:22:47.701Z,52.70
2023-04-02T03:28:54.441Z,57.10
2023-04-02T03:35:50.293Z,55.80
2023-04-02T03:42:58.786Z,54.60
2023-04-02T03:50:05.286Z,66.60
2023-04-02T03:56:40.915Z,65.90
2023-04-02T04:03:47.175Z,61.90
2023-04-02T04:10:49.699Z,45.50
2023-04-02T04:17:46.835Z,50.60
2023-04-02T04:24:55.180Z,50.20
2023-04-02T04:32:11.732Z,46.20
2023-04-02T04:39:19.168Z,45.00
2023-04-02T04:46:26.207Z,49.40
2023-04-02T04:53:36.858Z,43.60
2023-04-02T05:00:45.241Z,26.70
2023-04-02T05:08:05.319Z,18.60
2023-04-02T05:15:18.609Z,18.20
2023-04-02T05:22:32.722Z,19.10
2023-04-02T05:29:12.708Z,17.50
2023-04-02T05:35:41.781Z,12.20
2023-04-02T05:42:36.911Z,14.30
2023-04-02T05:49:38.546Z,13.50
2023-04-02T05:56:50.506Z,9.60
2023-04-02T06:03:18.946Z,8.90
2023-04-02T06:09:51.115Z,9.50
2023-04-02T06:16:58.558Z,8.00
2023-04-02T06:23:30.542Z,9.60
2023-04-02T06:30:28.688Z,10.30
2023-04-02T06:37:38.010Z,8.10
2023-04-02T06:43:50.844Z,6.40
2023-04-02T06:50:46.525Z,8.60
2023-04-02T06:57:36.838Z,5.80
2023-04-02T07:03:14.758Z,6.50
2023-04-02T07:09:08.629Z,5.00
2023-04-02T07:16:08.511Z,3.80
2023-04-02T07:22:25.294Z,2.80
2023-04-02T07:27:52.864Z,4.10
2023-04-02T07:34:27.472Z,2.30
2023-04-02T07:41:04.248Z,3.50
2023-04-02T07:47:13.201Z,3.40
2023-04-02T07:53:27.785Z,4.00
2023-04-02T07:59:11.848Z,2.90
2023-04-02T08:05:38.623Z,4.70
2023-04-02T08:11:02.505Z,4.90
2023-04-02T08:17:43.371Z,3.20
2023-04-02T08:23:58.020Z,8.40
2023-04-02T08:30:10.298Z,8.00
2023-04-02T08:35:20.034Z,6.60
2023-04-02T08:41:37.784Z,8.80
2023-04-02T08:47:23.270Z,7.30
2023-04-02T08:53:26.132Z,8.60
2023-04-02T08:59:37.115Z,9.10
2023-04-02T09:06:18.912Z,12.90
2023-04-02T09:12:47.008Z,16.40
2023-04-02T09:19:20.211Z,17.40
2023-04-02T09:26:13.555Z,19.70
2023-04-02T09:33:06.723Z,19.70
2023-04-02T09:39:05.922Z,18.60
2023-04-02T09:45:22.473Z,15.20
2023-04-02T09:52:10.467Z,15.60
2023-04-02T09:57:37.713Z,12.30
2023-04-02T10:17:52.923Z,14.90
2023-04-02T10:24:05.484Z,15.60
2023-04-02T10:30:12.155Z,17.40
2023-04-02T10:36:31.262Z,14.30
2023-04-02T10:42:57.143Z,15.70
2023-04-02T10:49:08.760Z,15.60
2023-04-02T11:02:35.114Z,13.10
2023-04-02T11:08:47.392Z,11.40
2023-04-02T11:14:47.662Z,15.40
2023-04-02T11:25:29.360Z,9.80
2023-04-02T11:31:15.408Z,10.70
2023-04-02T11:37:26.815Z,13.50
2023-04-02T11:42:50.506Z,12.80
2023-04-02T11:48:54.611Z,14.10
2023-04-02T11:54:57.674Z,11.80
2023-04-02T12:01:22.232Z,12.60
2023-04-02T12:06:55.326Z,13.40
2023-04-02T12:12:15.891Z,13.50
2023-04-02T12:17:44.335Z,13.70
2023-04-02T12:23:07.817Z,14.30
2023-04-02T12:28:41.969Z,12.90
2023-04-02T12:34:04.053Z,15.30
2023-04-02T12:39:20.817Z,15.00
2023-04-02T12:44:30.489Z,14.90
2023-04-02T12:49:53.800Z,18.50
2023-04-02T12:56:32.220Z,19.40
2023-04-02T13:01:40.287Z,15.30
2023-04-02T13:06:58.853Z,22.10
2023-04-02T13:12:04.067Z,17.20
2023-04-02T13:18:00.665Z,15.50
2023-04-02T13:23:39.088Z,16.40
2023-04-02T13:29:39.660Z,16.00
2023-04-02T13:35:32.843Z,17.60
2023-04-02T13:40:40.786Z,16.00
2023-04-02T13:45:57.227Z,21.90
2023-04-02T13:51:01.862Z,20.20
2023-04-02T13:56:33.737Z,19.80
2023-04-02T14:01:56.778Z,19.30
2023-04-02T14:07:27.252Z,15.10
2023-04-02T14:13:27.754Z,18.50
2023-04-02T14:19:26.456Z,20.20
2023-04-02T14:25:18.172Z,18.90
2023-04-02T14:31:23.734Z,21.80
2023-04-02T14:37:09.501Z,18.50
2023-04-02T14:42:55.638Z,21.40
2023-04-02T14:49:10.455Z,20.80
2023-04-02T14:55:36.809Z,20.30
2023-04-02T15:01:47.175Z,21.00
2023-04-02T15:07:24.486Z,19.40
2023-04-02T15:13:00.146Z,19.60
2023-04-02T15:20:00.193Z,20.50
2023-04-02T15:26:39.349Z,18.30
2023-04-02T15:33:40.042Z,18.50
2023-04-02T15:40:27.940Z,18.60
2023-04-02T15:47:09.824Z,15.90
2023-04-02T15:53:12.110Z,13.00
2023-04-02T15:59:19.155Z,14.10
2023-04-02T16:05:14.193Z,17.60
2023-04-02T16:10:41.932Z,9.50
2023-04-02T16:16:32.452Z,17.00
2023-04-02T16:22:53.375Z,19.10
2023-04-02T16:28:50.907Z,18.20
2023-04-02T16:34:41.837Z,17.50
2023-04-02T16:40:57.137Z,13.30
2023-04-02T16:47:15.195Z,14.90
2023-04-02T16:53:07.456Z,19.70
2023-04-02T16:59:07.781Z,15.80
2023-04-02T17:05:39.363Z,19.60
2023-04-02T17:11:17.662Z,18.90
2023-04-02T17:16:57.542Z,15.70
2023-04-02T17:24:04.305Z,16.10
2023-04-02T17:30:56.114Z,17.10
2023-04-02T17:37:45.919Z,13.90
2023-04-02T17:44:28.022Z,13.70
2023-04-02T17:50:27.935Z,11.60
2023-04-02T17:56:34.348Z,13.10
2023-04-02T18:02:59.455Z,12.90
2023-04-02T18:08:59.697Z,10.60
2023-04-02T18:15:46.696Z,14.10
2023-04-02T18:22:13.019Z,13.90
2023-04-02T18:27:57.299Z,13.80
2023-04-02T18:33:55.990Z,14.40
2023-04-02T18:40:23.879Z,11.40
2023-04-02T18:46:04.719Z,13.30
2023-04-02T18:51:38.080Z,13.10
2023-04-02T18:57:29.806Z,11.70
2023-04-02T19:03:43.865Z,11.90
2023-04-02T19:09:48.355Z,15.30
2023-04-02T19:15:03.670Z,16.10
2023-04-02T19:20:29.396Z,15.60
2023-04-02T19:26:00.142Z,11.80
2023-04-02T19:32:11.654Z,13.40
2023-04-02T19:38:33.176Z,12.90
2023-04-02T19:43:55.504Z,11.10
2023-04-02T19:49:30.482Z,11.40
2023-04-02T19:54:59.644Z,12.90
2023-04-02T20:00:33.074Z,17.80
2023-04-02T20:06:05.281Z,11.80
2023-04-02T20:11:14.971Z,12.60
2023-04-02T20:16:39.741Z,13.40
2023-04-02T20:22:14.817Z,14.20
2023-04-02T20:27:42.336Z,13.40
2023-04-02T20:34:01.658Z,13.00
2023-04-02T20:40:34.789Z,13.70
2023-04-02T20:45:43.807Z,15.50
2023-04-02T20:50:47.644Z,11.90
2023-04-02T20:56:42.776Z,9.90
2023-04-02T21:08:58.754Z,14.60
2023-04-02T21:14:11.385Z,12.30
2023-04-02T21:19:35.098Z,13.00
2023-04-02T21:24:47.373Z,12.20
2023-04-02T21:30:17.739Z,13.90
2023-04-02T21:36:29.649Z,10.60
2023-04-02T21:43:46.576Z,12.60
2023-04-02T21:51:03.521Z,12.30
2023-04-02T21:57:49.380Z,8.50
2023-04-02T22:04:38.587Z,9.80
2023-04-02T22:55:22.054Z,7.40
2023-04-02T23:28:16.478Z,8.10
2023-04-02T23:35:19.472Z,9.40
2023-04-02T23:42:27.184Z,11.10
2023-04-02T23:49:53.193Z,11.20
2023-04-02T23:56:59.848Z,18.00
